sensor_id;sensor_type;location;lat;lon;timestamp;pressure;altitude;pressure_sealevel;temperature;humidity
23574;BME280;11965;53.640;10.050;2022-12-13T00:01:59;101250.84;;;-6.50;100.00
23574;BME280;11965;53.640;10.050;2022-12-13T00:04:26;101254.97;;;-6.60;100.00
23574;BME280;11965;53.640;10.050;2022-12-13T00:06:53;101259.69;;;-6.65;100.00
23574;BME280;11965;53.640;10.050;2022-12-13T00:09:20;101258.09;;;-6.70;100.00
23574;BME280;11965;53.640;10.050;2022-12-13T00:11:48;101249.94;;;-6.68;100.00
23574;BME280;11965;53.640;10.050;2022-12-13T00:14:15;101249.28;;;-6.73;100.00
23574;BME280;11965;53.640;10.050;2022-12-13T00:16:44;101251.16;;;-6.75;100.00
23574;BME280;11965;53.640;10.050;2022-12-13T00:19:14;101248.09;;;-6.68;100.00
23574;BME280;11965;53.640;10.050;2022-12-13T00:21:41;101248.91;;;-6.65;100.00
23574;BME280;11965;53.640;10.050;2022-12-13T00:24:08;101245.56;;;-6.71;100.00
23574;BME280;11965;53.640;10.050;2022-12-13T00:26:35;101243.03;;;-6.74;100.00
23574;BME280;11965;53.640;10.050;2022-12-13T00:29:05;101241.84;;;-6.68;100.00
23574;BME280;11965;53.640;10.050;2022-12-13T00:31:32;101245.34;;;-6.66;100.00
23574;BME280;11965;53.640;10.050;2022-12-13T00:34:00;101241.63;;;-6.63;100.00
23574;BME280;11965;53.640;10.050;2022-12-13T00:36:28;101239.81;;;-6.63;100.00
23574;BME280;11965;53.640;10.050;2022-12-13T00:38:55;101240.34;;;-6.56;100.00
23574;BME280;11965;53.640;10.050;2022-12-13T00:41:30;101228.41;;;-6.51;100.00
23574;BME280;11965;53.640;10.050;2022-12-13T00:43:58;101236.41;;;-6.49;100.00
23574;BME280;11965;53.640;10.050;2022-12-13T00:46:26;101237.63;;;-6.37;100.00
23574;BME280;11965;53.640;10.050;2022-12-13T00:48:55;101225.81;;;-6.35;100.00
23574;BME280;11965;53.640;10.050;2022-12-13T00:51:23;101220.19;;;-6.30;100.00
23574;BME280;11965;53.640;10.050;2022-12-13T00:53:52;101220.75;;;-6.24;100.00
23574;BME280;11965;53.640;10.050;2022-12-13T00:56:20;101214.16;;;-6.18;100.00
23574;BME280;11965;53.640;10.050;2022-12-13T00:58:50;101214.16;;;-6.18;100.00
23574;BME280;11965;53.640;10.050;2022-12-13T01:01:20;101206.06;;;-6.18;100.00
23574;BME280;11965;53.640;10.050;2022-12-13T01:03:48;101202.50;;;-6.18;100.00
23574;BME280;11965;53.640;10.050;2022-12-13T01:06:18;101207.03;;;-6.19;100.00
23574;BME280;11965;53.640;10.050;2022-12-13T01:08:46;101216.25;;;-6.23;100.00
23574;BME280;11965;53.640;10.050;2022-12-13T01:11:15;101219.97;;;-6.26;100.00
23574;BME280;11965;53.640;10.050;2022-12-13T01:13:43;101213.19;;;-6.34;100.00
23574;BME280;11965;53.640;10.050;2022-12-13T01:16:12;101216.91;;;-6.37;100.00
23574;BME280;11965;53.640;10.050;2022-12-13T01:18:40;101203.84;;;-6.45;100.00
23574;BME280;11965;53.640;10.050;2022-12-13T01:21:10;101211.69;;;-6.40;100.00
23574;BME280;11965;53.640;10.050;2022-12-13T01:23:38;101212.41;;;-6.36;100.00
23574;BME280;11965;53.640;10.050;2022-12-13T01:26:07;101208.53;;;-6.31;100.00
23574;BME280;11965;53.640;10.050;2022-12-13T01:28:36;101204.72;;;-6.27;100.00
23574;BME280;11965;53.640;10.050;2022-12-13T01:31:05;101206.72;;;-6.30;100.00
23574;BME280;11965;53.640;10.050;2022-12-13T01:33:33;101207.41;;;-6.27;100.00
23574;BME280;11965;53.640;10.050;2022-12-13T01:36:02;101203.44;;;-6.37;100.00
23574;BME280;11965;53.640;10.050;2022-12-13T01:38:29;101204.47;;;-6.39;100.00
23574;BME280;11965;53.640;10.050;2022-12-13T01:40:57;101203.69;;;-6.41;100.00
23574;BME280;11965;53.640;10.050;2022-12-13T01:43:30;101210.53;;;-6.53;100.00
23574;BME280;11965;53.640;10.050;2022-12-13T01:46:18;101215.38;;;-6.60;100.00
23574;BME280;11965;53.640;10.050;2022-12-13T01:48:50;101211.31;;;-6.69;100.00
23574;BME280;11965;53.640;10.050;2022-12-13T01:51:25;101216.84;;;-6.72;100.00
23574;BME280;11965;53.640;10.050;2022-12-13T01:53:56;101207.03;;;-6.73;100.00
23574;BME280;11965;53.640;10.050;2022-12-13T01:56:30;101208.91;;;-6.75;100.00
23574;BME280;11965;53.640;10.050;2022-12-13T01:59:01;101209.66;;;-6.71;100.00
23574;BME280;11965;53.640;10.050;2022-12-13T02:01:30;101203.09;;;-6.65;100.00
23574;BME280;11965;53.640;10.050;2022-12-13T02:03:57;101201.97;;;-6.61;100.00
23574;BME280;11965;53.640;10.050;2022-12-13T02:06:29;101200.72;;;-6.54;100.00
23574;BME280;11965;53.640;10.050;2022-12-13T02:08:59;101195.16;;;-6.51;100.00
23574;BME280;11965;53.640;10.050;2022-12-13T02:11:27;101195.09;;;-6.50;100.00
23574;BME280;11965;53.640;10.050;2022-12-13T02:13:54;101195.31;;;-6.54;100.00
23574;BME280;11965;53.640;10.050;2022-12-13T02:16:36;101197.06;;;-6.53;100.00
23574;BME280;11965;53.640;10.050;2022-12-13T02:19:33;101195.16;;;-6.51;100.00
23574;BME280;11965;53.640;10.050;2022-12-13T02:22:24;101190.16;;;-6.59;100.00
23574;BME280;11965;53.640;10.050;2022-12-13T02:25:17;101195.47;;;-6.57;100.00
23574;BME280;11965;53.640;10.050;2022-12-13T02:28:05;101178.34;;;-6.56;100.00
23574;BME280;11965;53.640;10.050;2022-12-13T02:30:43;101187.31;;;-6.56;100.00
23574;BME280;11965;53.640;10.050;2022-12-13T02:33:23;101178.19;;;-6.53;100.00
23574;BME280;11965;53.640;10.050;2022-12-13T02:36:02;101173.75;;;-6.54;100.00
23574;BME280;11965;53.640;10.050;2022-12-13T02:38:38;101169.22;;;-6.54;100.00
23574;BME280;11965;53.640;10.050;2022-12-13T02:41:16;101167.72;;;-6.59;100.00
23574;BME280;11965;53.640;10.050;2022-12-13T02:43:49;101179.47;;;-6.60;100.00
23574;BME280;11965;53.640;10.050;2022-12-13T02:46:26;101174.25;;;-6.63;100.00
23574;BME280;11965;53.640;10.050;2022-12-13T02:48:57;101167.22;;;-6.68;100.00
23574;BME280;11965;53.640;10.050;2022-12-13T02:51:26;101160.34;;;-6.73;100.00
23574;BME280;11965;53.640;10.050;2022-12-13T02:53:54;101164.84;;;-6.74;100.00
23574;BME280;11965;53.640;10.050;2022-12-13T02:56:21;101167.63;;;-6.75;100.00
23574;BME280;11965;53.640;10.050;2022-12-13T02:58:52;101178.34;;;-6.74;100.00
23574;BME280;11965;53.640;10.050;2022-12-13T03:01:34;101178.50;;;-6.77;100.00
23574;BME280;11965;53.640;10.050;2022-12-13T03:04:12;101173.09;;;-6.77;100.00
23574;BME280;11965;53.640;10.050;2022-12-13T03:06:54;101165.88;;;-6.76;100.00
23574;BME280;11965;53.640;10.050;2022-12-13T03:09:36;101155.47;;;-6.84;100.00
23574;BME280;11965;53.640;10.050;2022-12-13T03:12:18;101174.53;;;-6.70;100.00
23574;BME280;11965;53.640;10.050;2022-12-13T03:15:14;101166.38;;;-6.68;100.00
23574;BME280;11965;53.640;10.050;2022-12-13T03:17:51;101170.75;;;-6.65;100.00
23574;BME280;11965;53.640;10.050;2022-12-13T03:20:24;101175.97;;;-6.62;100.00
23574;BME280;11965;53.640;10.050;2022-12-13T03:22:53;101178.44;;;-6.58;100.00
23574;BME280;11965;53.640;10.050;2022-12-13T03:25:23;101175.50;;;-6.53;100.00
23574;BME280;11965;53.640;10.050;2022-12-13T03:27:51;101162.75;;;-6.50;100.00
23574;BME280;11965;53.640;10.050;2022-12-13T03:30:18;101161.78;;;-6.49;100.00
23574;BME280;11965;53.640;10.050;2022-12-13T03:32:46;101161.94;;;-6.52;100.00
23574;BME280;11965;53.640;10.050;2022-12-13T03:35:13;101160.28;;;-6.54;100.00
23574;BME280;11965;53.640;10.050;2022-12-13T03:37:40;101165.88;;;-6.59;100.00
23574;BME280;11965;53.640;10.050;2022-12-13T03:40:08;101163.50;;;-6.65;100.00
23574;BME280;11965;53.640;10.050;2022-12-13T03:42:35;101159.16;;;-6.68;100.00
23574;BME280;11965;53.640;10.050;2022-12-13T03:45:02;101148.38;;;-6.68;100.00
23574;BME280;11965;53.640;10.050;2022-12-13T03:47:29;101146.75;;;-6.72;100.00
23574;BME280;11965;53.640;10.050;2022-12-13T03:49:57;101158.19;;;-6.67;100.00
23574;BME280;11965;53.640;10.050;2022-12-13T03:52:24;101149.97;;;-6.63;100.00
23574;BME280;11965;53.640;10.050;2022-12-13T03:54:51;101145.06;;;-6.55;100.00
23574;BME280;11965;53.640;10.050;2022-12-13T03:57:18;101141.88;;;-6.46;100.00
23574;BME280;11965;53.640;10.050;2022-12-13T03:59:45;101148.78;;;-6.40;100.00
23574;BME280;11965;53.640;10.050;2022-12-13T04:02:12;101146.41;;;-6.29;100.00
23574;BME280;11965;53.640;10.050;2022-12-13T04:04:39;101144.19;;;-6.21;100.00
23574;BME280;11965;53.640;10.050;2022-12-13T04:07:07;101131.25;;;-6.14;100.00
23574;BME280;11965;53.640;10.050;2022-12-13T04:09:34;101139.47;;;-6.00;100.00
23574;BME280;11965;53.640;10.050;2022-12-13T04:12:01;101135.47;;;-5.93;100.00
23574;BME280;11965;53.640;10.050;2022-12-13T04:14:54;101135.06;;;-5.85;100.00
23574;BME280;11965;53.640;10.050;2022-12-13T04:17:21;101133.75;;;-5.78;100.00
23574;BME280;11965;53.640;10.050;2022-12-13T04:19:48;101139.53;;;-5.68;100.00
23574;BME280;11965;53.640;10.050;2022-12-13T04:22:17;101127.97;;;-5.55;100.00
23574;BME280;11965;53.640;10.050;2022-12-13T04:24:43;101127.50;;;-5.45;100.00
23574;BME280;11965;53.640;10.050;2022-12-13T04:27:10;101123.13;;;-5.48;100.00
23574;BME280;11965;53.640;10.050;2022-12-13T04:29:38;101127.00;;;-5.53;100.00
23574;BME280;11965;53.640;10.050;2022-12-13T04:32:05;101131.53;;;-5.54;100.00
23574;BME280;11965;53.640;10.050;2022-12-13T04:34:32;101130.50;;;-5.51;100.00
23574;BME280;11965;53.640;10.050;2022-12-13T04:36:59;101128.25;;;-5.43;100.00
23574;BME280;11965;53.640;10.050;2022-12-13T04:39:27;101124.34;;;-5.38;100.00
23574;BME280;11965;53.640;10.050;2022-12-13T04:41:54;101135.00;;;-5.35;100.00
23574;BME280;11965;53.640;10.050;2022-12-13T04:44:21;101124.94;;;-5.33;100.00
23574;BME280;11965;53.640;10.050;2022-12-13T04:46:48;101128.38;;;-5.29;100.00
23574;BME280;11965;53.640;10.050;2022-12-13T04:49:14;101122.50;;;-5.21;100.00
23574;BME280;11965;53.640;10.050;2022-12-13T04:51:41;101119.91;;;-5.23;100.00
23574;BME280;11965;53.640;10.050;2022-12-13T04:54:08;101120.53;;;-5.18;100.00
23574;BME280;11965;53.640;10.050;2022-12-13T04:56:37;101113.22;;;-5.16;100.00
23574;BME280;11965;53.640;10.050;2022-12-13T04:59:04;101116.84;;;-5.17;100.00
23574;BME280;11965;53.640;10.050;2022-12-13T05:01:31;101116.06;;;-5.19;100.00
23574;BME280;11965;53.640;10.050;2022-12-13T05:04:01;101111.38;;;-5.15;100.00
23574;BME280;11965;53.640;10.050;2022-12-13T05:06:29;101112.06;;;-5.12;100.00
23574;BME280;11965;53.640;10.050;2022-12-13T05:08:55;101111.69;;;-5.05;100.00
23574;BME280;11965;53.640;10.050;2022-12-13T05:11:22;101114.94;;;-4.99;100.00
23574;BME280;11965;53.640;10.050;2022-12-13T05:13:50;101120.09;;;-4.94;100.00
23574;BME280;11965;53.640;10.050;2022-12-13T05:16:17;101116.31;;;-4.92;100.00
23574;BME280;11965;53.640;10.050;2022-12-13T05:18:44;101115.25;;;-4.89;100.00
23574;BME280;11965;53.640;10.050;2022-12-13T05:21:11;101114.31;;;-4.88;100.00
23574;BME280;11965;53.640;10.050;2022-12-13T05:23:38;101115.09;;;-4.86;100.00
23574;BME280;11965;53.640;10.050;2022-12-13T05:26:05;101113.44;;;-4.89;100.00
23574;BME280;11965;53.640;10.050;2022-12-13T05:28:32;101111.44;;;-4.85;100.00
23574;BME280;11965;53.640;10.050;2022-12-13T05:31:06;101111.50;;;-4.86;100.00
23574;BME280;11965;53.640;10.050;2022-12-13T05:33:33;101105.75;;;-4.80;100.00
23574;BME280;11965;53.640;10.050;2022-12-13T05:36:00;101110.00;;;-4.76;100.00
23574;BME280;11965;53.640;10.050;2022-12-13T05:38:28;101108.28;;;-4.77;100.00
23574;BME280;11965;53.640;10.050;2022-12-13T05:40:55;101107.31;;;-4.76;100.00
23574;BME280;11965;53.640;10.050;2022-12-13T05:43:23;101115.34;;;-4.75;100.00
23574;BME280;11965;53.640;10.050;2022-12-13T05:45:50;101117.19;;;-4.75;100.00
23574;BME280;11965;53.640;10.050;2022-12-13T05:48:18;101115.03;;;-4.70;100.00
23574;BME280;11965;53.640;10.050;2022-12-13T05:50:45;101116.63;;;-4.66;100.00
23574;BME280;11965;53.640;10.050;2022-12-13T05:53:12;101112.69;;;-4.60;100.00
23574;BME280;11965;53.640;10.050;2022-12-13T05:55:40;101113.66;;;-4.61;100.00
23574;BME280;11965;53.640;10.050;2022-12-13T05:58:08;101111.91;;;-4.62;100.00
23574;BME280;11965;53.640;10.050;2022-12-13T06:00:37;101108.25;;;-4.61;100.00
23574;BME280;11965;53.640;10.050;2022-12-13T06:03:04;101100.88;;;-4.59;100.00
23574;BME280;11965;53.640;10.050;2022-12-13T06:05:32;101107.94;;;-4.57;100.00
23574;BME280;11965;53.640;10.050;2022-12-13T06:08:00;101107.88;;;-4.55;100.00
23574;BME280;11965;53.640;10.050;2022-12-13T06:10:27;101109.91;;;-4.59;100.00
23574;BME280;11965;53.640;10.050;2022-12-13T06:12:54;101104.13;;;-4.53;100.00
23574;BME280;11965;53.640;10.050;2022-12-13T06:15:21;101117.47;;;-4.50;100.00
23574;BME280;11965;53.640;10.050;2022-12-13T06:17:48;101108.84;;;-4.56;100.00
23574;BME280;11965;53.640;10.050;2022-12-13T06:20:15;101113.09;;;-4.52;100.00
23574;BME280;11965;53.640;10.050;2022-12-13T06:22:43;101110.22;;;-4.49;100.00
23574;BME280;11965;53.640;10.050;2022-12-13T06:25:10;101109.44;;;-4.51;100.00
23574;BME280;11965;53.640;10.050;2022-12-13T06:27:37;101106.03;;;-4.55;100.00
23574;BME280;11965;53.640;10.050;2022-12-13T06:30:05;101112.31;;;-4.54;100.00
23574;BME280;11965;53.640;10.050;2022-12-13T06:32:32;101118.50;;;-4.52;100.00
23574;BME280;11965;53.640;10.050;2022-12-13T06:34:59;101112.72;;;-4.46;100.00
23574;BME280;11965;53.640;10.050;2022-12-13T06:37:26;101115.34;;;-4.45;100.00
23574;BME280;11965;53.640;10.050;2022-12-13T06:39:54;101117.00;;;-4.42;100.00
23574;BME280;11965;53.640;10.050;2022-12-13T06:42:21;101118.53;;;-4.38;100.00
23574;BME280;11965;53.640;10.050;2022-12-13T06:44:48;101123.97;;;-4.38;100.00
23574;BME280;11965;53.640;10.050;2022-12-13T06:47:16;101120.38;;;-4.38;100.00
23574;BME280;11965;53.640;10.050;2022-12-13T06:49:43;101118.28;;;-4.33;100.00
23574;BME280;11965;53.640;10.050;2022-12-13T06:52:12;101121.78;;;-4.31;100.00
23574;BME280;11965;53.640;10.050;2022-12-13T06:54:39;101118.97;;;-4.30;100.00
23574;BME280;11965;53.640;10.050;2022-12-13T06:57:08;101123.69;;;-4.33;100.00
23574;BME280;11965;53.640;10.050;2022-12-13T06:59:35;101124.75;;;-4.36;100.00
23574;BME280;11965;53.640;10.050;2022-12-13T07:02:04;101122.81;;;-4.34;100.00
23574;BME280;11965;53.640;10.050;2022-12-13T07:04:31;101129.63;;;-4.27;100.00
23574;BME280;11965;53.640;10.050;2022-12-13T07:06:58;101134.91;;;-4.25;100.00
23574;BME280;11965;53.640;10.050;2022-12-13T07:09:25;101129.50;;;-4.25;100.00
23574;BME280;11965;53.640;10.050;2022-12-13T07:11:52;101128.56;;;-4.24;100.00
23574;BME280;11965;53.640;10.050;2022-12-13T07:14:20;101136.50;;;-4.21;100.00
23574;BME280;11965;53.640;10.050;2022-12-13T07:16:47;101134.66;;;-4.20;100.00
23574;BME280;11965;53.640;10.050;2022-12-13T07:19:14;101130.88;;;-4.18;100.00
23574;BME280;11965;53.640;10.050;2022-12-13T07:21:41;101127.22;;;-4.17;100.00
23574;BME280;11965;53.640;10.050;2022-12-13T07:24:08;101129.72;;;-4.14;100.00
23574;BME280;11965;53.640;10.050;2022-12-13T07:26:34;101127.91;;;-4.13;100.00
23574;BME280;11965;53.640;10.050;2022-12-13T07:29:02;101118.22;;;-4.17;100.00
23574;BME280;11965;53.640;10.050;2022-12-13T07:31:33;101127.59;;;-4.09;100.00
23574;BME280;11965;53.640;10.050;2022-12-13T07:34:00;101124.31;;;-4.14;100.00
23574;BME280;11965;53.640;10.050;2022-12-13T07:36:27;101115.50;;;-4.17;100.00
23574;BME280;11965;53.640;10.050;2022-12-13T07:38:56;101124.41;;;-4.15;100.00
23574;BME280;11965;53.640;10.050;2022-12-13T07:41:24;101137.16;;;-4.17;100.00
23574;BME280;11965;53.640;10.050;2022-12-13T07:43:54;101144.22;;;-4.15;100.00
23574;BME280;11965;53.640;10.050;2022-12-13T07:46:21;101130.50;;;-4.12;100.00
23574;BME280;11965;53.640;10.050;2022-12-13T07:48:50;101137.38;;;-4.06;100.00
23574;BME280;11965;53.640;10.050;2022-12-13T07:51:17;101137.88;;;-4.00;100.00
23574;BME280;11965;53.640;10.050;2022-12-13T07:53:43;101141.28;;;-3.96;100.00
23574;BME280;11965;53.640;10.050;2022-12-13T07:56:11;101145.72;;;-3.95;100.00
23574;BME280;11965;53.640;10.050;2022-12-13T07:58:38;101142.72;;;-3.90;100.00
23574;BME280;11965;53.640;10.050;2022-12-13T08:01:08;101147.09;;;-3.88;100.00
23574;BME280;11965;53.640;10.050;2022-12-13T08:03:37;101142.66;;;-3.89;100.00
23574;BME280;11965;53.640;10.050;2022-12-13T08:06:07;101139.53;;;-3.83;100.00
23574;BME280;11965;53.640;10.050;2022-12-13T08:08:36;101146.34;;;-3.75;100.00
23574;BME280;11965;53.640;10.050;2022-12-13T08:11:05;101153.88;;;-3.52;100.00
23574;BME280;11965;53.640;10.050;2022-12-13T08:13:34;101147.31;;;-3.62;100.00
23574;BME280;11965;53.640;10.050;2022-12-13T08:16:03;101155.81;;;-3.54;100.00
23574;BME280;11965;53.640;10.050;2022-12-13T08:18:31;101163.09;;;-3.40;100.00
23574;BME280;11965;53.640;10.050;2022-12-13T08:20:59;101158.81;;;-3.44;100.00
23574;BME280;11965;53.640;10.050;2022-12-13T08:23:29;101151.84;;;-3.48;100.00
23574;BME280;11965;53.640;10.050;2022-12-13T08:25:56;101152.44;;;-3.43;100.00
23574;BME280;11965;53.640;10.050;2022-12-13T08:28:24;101158.06;;;-3.46;100.00
23574;BME280;11965;53.640;10.050;2022-12-13T08:30:52;101147.31;;;-3.48;100.00
23574;BME280;11965;53.640;10.050;2022-12-13T08:33:20;101147.50;;;-3.51;100.00
23574;BME280;11965;53.640;10.050;2022-12-13T08:35:47;101153.00;;;-3.52;100.00
23574;BME280;11965;53.640;10.050;2022-12-13T08:38:14;101150.00;;;-3.48;100.00
23574;BME280;11965;53.640;10.050;2022-12-13T08:40:42;101149.72;;;-3.43;100.00
23574;BME280;11965;53.640;10.050;2022-12-13T08:43:09;101140.63;;;-3.42;100.00
23574;BME280;11965;53.640;10.050;2022-12-13T08:45:37;101128.78;;;-3.41;100.00
23574;BME280;11965;53.640;10.050;2022-12-13T08:48:04;101131.72;;;-3.44;100.00
23574;BME280;11965;53.640;10.050;2022-12-13T08:50:31;101129.19;;;-3.47;100.00
23574;BME280;11965;53.640;10.050;2022-12-13T08:52:57;101119.63;;;-3.53;100.00
23574;BME280;11965;53.640;10.050;2022-12-13T08:55:25;101122.34;;;-3.53;100.00
23574;BME280;11965;53.640;10.050;2022-12-13T08:57:53;101131.91;;;-3.47;100.00
23574;BME280;11965;53.640;10.050;2022-12-13T09:00:20;101131.72;;;-3.44;100.00
23574;BME280;11965;53.640;10.050;2022-12-13T09:02:47;101130.44;;;-3.39;100.00
23574;BME280;11965;53.640;10.050;2022-12-13T09:05:15;101124.94;;;-3.37;100.00
23574;BME280;11965;53.640;10.050;2022-12-13T09:07:42;101131.13;;;-3.35;100.00
23574;BME280;11965;53.640;10.050;2022-12-13T09:10:10;101113.44;;;-3.41;100.00
23574;BME280;11965;53.640;10.050;2022-12-13T09:12:40;101123.50;;;-3.43;100.00
23574;BME280;11965;53.640;10.050;2022-12-13T09:15:08;101135.31;;;-3.44;100.00
23574;BME280;11965;53.640;10.050;2022-12-13T09:17:36;101126.59;;;-3.49;100.00
23574;BME280;11965;53.640;10.050;2022-12-13T09:20:04;101123.00;;;-3.49;100.00
23574;BME280;11965;53.640;10.050;2022-12-13T09:22:32;101131.91;;;-3.47;100.00
23574;BME280;11965;53.640;10.050;2022-12-13T09:24:59;101132.59;;;-3.44;100.00
23574;BME280;11965;53.640;10.050;2022-12-13T09:27:26;101134.06;;;-3.38;100.00
23574;BME280;11965;53.640;10.050;2022-12-13T09:29:53;101132.09;;;-3.36;100.00
23574;BME280;11965;53.640;10.050;2022-12-13T09:32:21;101141.19;;;-3.37;100.00
23574;BME280;11965;53.640;10.050;2022-12-13T09:34:48;101134.91;;;-3.38;100.00
23574;BME280;11965;53.640;10.050;2022-12-13T09:37:15;101131.72;;;-3.44;100.00
23574;BME280;11965;53.640;10.050;2022-12-13T09:39:42;101138.03;;;-3.44;100.00
23574;BME280;11965;53.640;10.050;2022-12-13T09:42:16;101130.75;;;-3.43;100.00
23574;BME280;11965;53.640;10.050;2022-12-13T09:44:50;101133.03;;;-3.23;100.00
23574;BME280;11965;53.640;10.050;2022-12-13T09:47:28;101128.19;;;-3.03;100.00
23574;BME280;11965;53.640;10.050;2022-12-13T09:49:58;101123.69;;;-2.90;100.00
23574;BME280;11965;53.640;10.050;2022-12-13T09:52:34;101114.31;;;-2.72;100.00
23574;BME280;11965;53.640;10.050;2022-12-13T09:55:17;101127.97;;;-2.46;100.00
23574;BME280;11965;53.640;10.050;2022-12-13T09:57:46;101106.81;;;-2.41;100.00
23574;BME280;11965;53.640;10.050;2022-12-13T10:00:18;101116.81;;;-2.29;100.00
23574;BME280;11965;53.640;10.050;2022-12-13T10:02:48;101115.44;;;-2.22;100.00
23574;BME280;11965;53.640;10.050;2022-12-13T10:05:27;101115.66;;;-2.25;100.00
23574;BME280;11965;53.640;10.050;2022-12-13T10:07:57;101111.41;;;-2.29;100.00
23574;BME280;11965;53.640;10.050;2022-12-13T10:10:26;101113.59;;;-2.21;100.00
23574;BME280;11965;53.640;10.050;2022-12-13T10:12:57;101107.06;;;-2.18;100.00
23574;BME280;11965;53.640;10.050;2022-12-13T10:15:31;101113.81;;;-2.11;100.00
23574;BME280;11965;53.640;10.050;2022-12-13T10:18:03;101106.63;;;-2.12;100.00
23574;BME280;11965;53.640;10.050;2022-12-13T10:20:33;101109.59;;;-2.03;100.00
23574;BME280;11965;53.640;10.050;2022-12-13T10:23:00;101107.22;;;-1.94;100.00
23574;BME280;11965;53.640;10.050;2022-12-13T10:25:46;101106.34;;;-1.82;100.00
23574;BME280;11965;53.640;10.050;2022-12-13T10:28:17;101110.59;;;-1.78;100.00
23574;BME280;11965;53.640;10.050;2022-12-13T10:30:45;101107.00;;;-1.66;100.00
23574;BME280;11965;53.640;10.050;2022-12-13T10:33:23;101107.75;;;-1.76;100.00
23574;BME280;11965;53.640;10.050;2022-12-13T10:36:13;101099.16;;;-1.70;100.00
23574;BME280;11965;53.640;10.050;2022-12-13T10:38:42;101091.09;;;-1.59;100.00
23574;BME280;11965;53.640;10.050;2022-12-13T10:41:32;101086.75;;;-1.49;100.00
23574;BME280;11965;53.640;10.050;2022-12-13T10:44:23;101096.75;;;-1.37;100.00
23574;BME280;11965;53.640;10.050;2022-12-13T10:47:13;101098.06;;;-1.42;100.00
23574;BME280;11965;53.640;10.050;2022-12-13T10:49:49;101099.09;;;-1.32;100.00
23574;BME280;11965;53.640;10.050;2022-12-13T10:52:29;101093.47;;;-1.29;100.00
23574;BME280;11965;53.640;10.050;2022-12-13T10:55:00;101081.16;;;-1.22;100.00
23574;BME280;11965;53.640;10.050;2022-12-13T10:57:30;101080.50;;;-1.25;100.00
23574;BME280;11965;53.640;10.050;2022-12-13T10:59:58;101076.25;;;-1.17;100.00
23574;BME280;11965;53.640;10.050;2022-12-13T11:02:33;101073.13;;;-1.23;100.00
23574;BME280;11965;53.640;10.050;2022-12-13T11:07:54;101069.13;;;-1.06;100.00
23574;BME280;11965;53.640;10.050;2022-12-13T11:13:03;101050.19;;;-1.08;100.00
23574;BME280;11965;53.640;10.050;2022-12-13T11:15:34;101051.81;;;-1.05;100.00
23574;BME280;11965;53.640;10.050;2022-12-13T11:18:06;101052.47;;;-1.02;100.00
23574;BME280;11965;53.640;10.050;2022-12-13T11:20:53;101059.19;;;-0.95;100.00
23574;BME280;11965;53.640;10.050;2022-12-13T11:23:27;101053.09;;;-0.98;100.00
23574;BME280;11965;53.640;10.050;2022-12-13T11:25:58;101055.06;;;-1.00;100.00
23574;BME280;11965;53.640;10.050;2022-12-13T11:28:54;101045.28;;;-1.03;100.00
23574;BME280;11965;53.640;10.050;2022-12-13T11:31:34;101040.38;;;-0.98;100.00
23574;BME280;11965;53.640;10.050;2022-12-13T11:34:18;101042.00;;;-0.95;100.00
23574;BME280;11965;53.640;10.050;2022-12-13T11:36:57;101034.88;;;-0.85;100.00
23574;BME280;11965;53.640;10.050;2022-12-13T11:39:30;101032.34;;;-0.75;100.00
23574;BME280;11965;53.640;10.050;2022-12-13T11:42:04;101032.44;;;-0.77;99.19
23574;BME280;11965;53.640;10.050;2022-12-13T11:44:48;101033.50;;;-0.91;100.00
23574;BME280;11965;53.640;10.050;2022-12-13T11:47:22;101025.72;;;-0.84;98.26
23574;BME280;11965;53.640;10.050;2022-12-13T11:49:52;101023.34;;;-0.64;100.00
23574;BME280;11965;53.640;10.050;2022-12-13T11:52:24;101024.53;;;-0.69;99.54
23574;BME280;11965;53.640;10.050;2022-12-13T11:54:58;101016.44;;;-0.81;97.95
23574;BME280;11965;53.640;10.050;2022-12-13T11:57:35;101016.06;;;-0.88;96.29
23574;BME280;11965;53.640;10.050;2022-12-13T12:00:15;101015.94;;;-0.86;95.72
23574;BME280;11965;53.640;10.050;2022-12-13T12:02:49;101004.53;;;-0.92;96.65
23574;BME280;11965;53.640;10.050;2022-12-13T12:05:26;101015.94;;;-0.86;96.08
23574;BME280;11965;53.640;10.050;2022-12-13T12:07:58;101013.69;;;-0.93;95.02
23574;BME280;11965;53.640;10.050;2022-12-13T12:10:33;101008.94;;;-1.02;93.89
23574;BME280;11965;53.640;10.050;2022-12-13T12:13:09;101017.22;;;-1.03;97.01
23574;BME280;11965;53.640;10.050;2022-12-13T12:15:45;101016.41;;;-0.93;96.03
23574;BME280;11965;53.640;10.050;2022-12-13T12:18:15;101013.63;;;-0.80;96.35
23574;BME280;11965;53.640;10.050;2022-12-13T12:21:02;101016.69;;;-0.84;96.11
23574;BME280;11965;53.640;10.050;2022-12-13T12:23:45;101013.09;;;-0.85;97.65
23574;BME280;11965;53.640;10.050;2022-12-13T12:26:24;101006.53;;;-0.94;97.43
23574;BME280;11965;53.640;10.050;2022-12-13T12:29:09;101002.69;;;-0.91;96.37
23574;BME280;11965;53.640;10.050;2022-12-13T12:31:48;101006.75;;;-0.97;93.55
23574;BME280;11965;53.640;10.050;2022-12-13T12:34:32;101007.38;;;-0.93;94.27
23574;BME280;11965;53.640;10.050;2022-12-13T12:37:12;100999.97;;;-0.91;92.74
23574;BME280;11965;53.640;10.050;2022-12-13T12:39:58;100991.16;;;-0.95;95.40
23574;BME280;11965;53.640;10.050;2022-12-13T12:42:45;101005.56;;;-1.05;94.60
23574;BME280;11965;53.640;10.050;2022-12-13T12:45:32;100997.03;;;-1.12;95.49
23574;BME280;11965;53.640;10.050;2022-12-13T12:48:23;101003.03;;;-1.20;97.62
23574;BME280;11965;53.640;10.050;2022-12-13T12:50:59;100994.25;;;-1.23;97.77
23574;BME280;11965;53.640;10.050;2022-12-13T12:53:38;100991.88;;;-1.28;99.18
23574;BME280;11965;53.640;10.050;2022-12-13T12:56:26;100988.81;;;-1.23;97.80